createdAt,value
2022-11-05T00:02:00.683Z,12
2022-11-05T00:07:00.737Z,11.9
2022-11-05T00:12:00.811Z,12
2022-11-05T00:17:00.682Z,11.7
2022-11-05T00:22:00.718Z,12
2022-11-05T00:27:01.181Z,11.6
2022-11-05T00:32:00.710Z,11.6
2022-11-05T00:37:00.789Z,11.6
2022-11-05T00:42:00.673Z,11.4
2022-11-05T00:47:24.934Z,11.3
2022-11-05T00:52:00.668Z,11.4
2022-11-05T00:57:06.664Z,11.3
2022-11-05T01:02:00.770Z,11.4
2022-11-05T01:07:00.668Z,11.4
2022-11-05T01:12:00.719Z,11.4
2022-11-05T01:22:51.213Z,11.3
2022-11-05T01:28:53.191Z,11.3
2022-11-05T01:32:00.740Z,11.3
2022-11-05T01:37:21.837Z,11.2
2022-11-05T01:42:00.826Z,11.2
2022-11-05T01:47:00.686Z,11.2
2022-11-05T01:52:08.276Z,11.2
2022-11-05T01:57:08.285Z,11.6
2022-11-05T02:02:08.336Z,11.6
2022-11-05T02:07:08.287Z,12
2022-11-05T02:12:08.255Z,12.9
2022-11-05T02:17:08.300Z,13
2022-11-05T02:22:08.293Z,13.1
2022-11-05T02:27:08.438Z,13.2
2022-11-05T02:32:08.295Z,13.2
2022-11-05T02:37:08.363Z,13.2
2022-11-05T02:42:08.349Z,13.2
2022-11-05T02:47:08.265Z,13.2
2022-11-05T02:52:08.309Z,13.6
2022-11-05T02:57:08.314Z,13.6
2022-11-05T03:02:08.404Z,13.6
2022-11-05T03:07:08.271Z,13.6
2022-11-05T03:12:08.271Z,13.6
2022-11-05T03:17:08.281Z,13.3
2022-11-05T03:22:08.337Z,13.6
2022-11-05T03:27:08.355Z,13.4
2022-11-05T03:32:08.386Z,13.4
2022-11-05T03:37:08.346Z,13.4
2022-11-05T03:42:08.347Z,13.4
2022-11-05T03:47:08.281Z,13.7
2022-11-05T03:52:08.267Z,13.9
2022-11-05T03:57:08.323Z,13.7
2022-11-05T04:02:08.361Z,14.6
2022-11-05T04:07:08.318Z,14.6
2022-11-05T04:12:08.317Z,14.6
2022-11-05T04:17:08.306Z,13.5
2022-11-05T04:22:08.316Z,13.4
2022-11-05T04:27:21.559Z,13.4
2022-11-05T04:33:04.278Z,13.5
2022-11-05T04:37:16.739Z,13.5
2022-11-05T04:42:08.331Z,14.3
2022-11-05T04:47:08.334Z,15
2022-11-05T04:52:08.321Z,15.4
2022-11-05T04:57:08.302Z,15.9
2022-11-05T05:02:08.329Z,15.9
2022-11-05T05:07:08.346Z,16.6
2022-11-05T05:12:08.353Z,16.6
2022-11-05T05:17:08.380Z,17.3
2022-11-05T05:22:08.324Z,17.5
2022-11-05T05:27:08.363Z,16.6
2022-11-05T05:32:08.453Z,17.5
2022-11-05T05:37:08.309Z,17.5
2022-11-05T05:42:08.396Z,17.5
2022-11-05T05:47:08.345Z,17.5
2022-11-05T05:52:08.344Z,17.4
2022-11-05T05:57:08.291Z,17.4
2022-11-05T06:02:08.561Z,17.5
2022-11-05T06:07:08.365Z,17.7
2022-11-05T06:12:08.367Z,18.1
2022-11-05T06:17:08.357Z,18.6
2022-11-05T06:22:08.300Z,19.5
2022-11-05T06:27:15.562Z,19.7
2022-11-05T06:32:08.295Z,19.7
2022-11-05T06:37:08.318Z,19.7
2022-11-05T06:42:18.902Z,19.7
2022-11-05T06:47:43.815Z,19.4
2022-11-05T06:52:08.394Z,19.4
2022-11-05T06:57:08.311Z,19.1
2022-11-05T07:02:08.355Z,19
2022-11-05T07:07:08.316Z,19
2022-11-05T07:12:08.374Z,19
2022-11-05T07:17:08.318Z,19.1
2022-11-05T07:22:08.329Z,20.9
2022-11-05T07:27:08.299Z,20.9
2022-11-05T07:32:41.815Z,22.2
2022-11-05T07:37:08.346Z,22.2
2022-11-05T07:42:08.369Z,22.2
2022-11-05T07:47:08.326Z,22.2
2022-11-05T07:52:08.447Z,21.8
2022-11-05T07:57:08.345Z,21.8
2022-11-05T08:02:08.432Z,22.2
2022-11-05T08:07:08.343Z,22.2
2022-11-05T08:12:08.368Z,21.8
2022-11-05T08:17:08.311Z,21.1
2022-11-05T08:22:08.306Z,21.1
2022-11-05T08:27:08.464Z,20.7
2022-11-05T08:32:08.389Z,20
2022-11-05T08:37:08.398Z,19.7
2022-11-05T08:42:08.365Z,19.4
2022-11-05T08:47:08.396Z,17.5
2022-11-05T08:52:11.236Z,17.1
2022-11-05T08:57:08.554Z,17
2022-11-05T09:02:08.446Z,16.9
2022-11-05T09:07:08.365Z,16.9
2022-11-05T09:12:14.374Z,16.9
2022-11-05T09:17:08.560Z,17
2022-11-05T09:22:08.369Z,17.1
2022-11-05T09:27:09.691Z,21.4
2022-11-05T09:32:08.628Z,21.4
2022-11-05T09:37:08.722Z,21.4
2022-11-05T09:42:08.524Z,21.4
2022-11-05T09:47:08.703Z,17.2
2022-11-05T09:52:08.401Z,17
2022-11-05T09:57:08.395Z,16.8
2022-11-05T10:02:08.535Z,16.4
2022-11-05T10:07:08.469Z,16.8
2022-11-05T10:12:08.440Z,16.8
2022-11-05T10:17:08.706Z,16.8
2022-11-05T10:22:08.433Z,16.8
2022-11-05T10:27:08.580Z,16.7
2022-11-05T10:32:08.313Z,16.7
2022-11-05T10:37:08.437Z,16.7
2022-11-05T10:42:08.319Z,14.3
2022-11-05T10:47:08.329Z,13.6
2022-11-05T10:52:08.328Z,13.4
2022-11-05T10:57:08.343Z,13.3
2022-11-05T11:02:08.564Z,13.2
2022-11-05T11:07:08.432Z,13.2
2022-11-05T11:12:08.414Z,13.1
2022-11-05T11:17:08.512Z,13.2
2022-11-05T11:22:08.424Z,12.7
2022-11-05T11:27:08.471Z,12.7
2022-11-05T11:32:08.400Z,12
2022-11-05T11:37:08.369Z,11.8
2022-11-05T11:42:08.364Z,11.6
2022-11-05T11:47:39.669Z,11.8
2022-11-05T11:52:08.457Z,11.8
2022-11-05T11:57:15.075Z,13.1
2022-11-05T12:02:08.526Z,14.4
2022-11-05T12:07:08.382Z,14.8
2022-11-05T12:12:08.362Z,18.2
2022-11-05T12:17:08.453Z,19.3
2022-11-05T12:22:08.381Z,19.5
2022-11-05T12:27:08.631Z,19.6
2022-11-05T12:32:08.353Z,19.6
2022-11-05T12:37:08.324Z,19.5
2022-11-05T12:42:08.552Z,19.5
2022-11-05T12:47:08.397Z,19.5
2022-11-05T12:52:08.359Z,18.3
2022-11-05T12:57:08.361Z,18.3
2022-11-05T13:02:08.434Z,18.2
2022-11-05T13:07:08.473Z,17.8
2022-11-05T13:12:08.422Z,17.2
2022-11-05T13:17:08.376Z,16.8
2022-11-05T13:22:08.443Z,15.8
2022-11-05T13:27:08.595Z,14.2
2022-11-05T13:32:21.157Z,14.2
2022-11-05T13:37:08.438Z,13.2
2022-11-05T13:48:35.268Z,12
2022-11-05T13:52:08.544Z,11.4
2022-11-05T13:57:08.430Z,11.8
2022-11-05T14:02:08.530Z,11.9
2022-11-05T14:07:08.347Z,12
2022-11-05T14:12:08.353Z,12.2
2022-11-05T14:17:08.348Z,12.4
2022-11-05T14:22:08.436Z,12.4
2022-11-05T14:27:08.385Z,12.4
2022-11-05T14:32:11.356Z,12.4
2022-11-05T14:37:08.367Z,11.5
2022-11-05T14:42:08.359Z,11.2
2022-11-05T15:27:19.030Z,11.9
2022-11-05T15:32:15.468Z,11.65
2022-11-05T15:37:21.408Z,11.9
2022-11-05T15:42:19.584Z,11.65
2022-11-05T15:47:19.572Z,11.4
2022-11-05T15:52:53.671Z,11.15
2022-11-05T15:57:19.464Z,11.4
2022-11-05T16:02:20.002Z,11.4
2022-11-05T16:07:19.532Z,11.9
2022-11-05T16:12:19.641Z,10.9
2022-11-05T16:17:19.566Z,10.9
2022-11-05T16:22:19.584Z,10.9
2022-11-05T16:27:22.524Z,10.9
2022-11-05T16:32:34.125Z,10.1
2022-11-05T16:37:19.456Z,9.6
2022-11-05T16:42:19.479Z,9.4
2022-11-05T16:47:19.492Z,9.6
2022-11-05T16:52:19.493Z,9.6
2022-11-05T16:57:19.544Z,9
2022-11-05T17:02:19.627Z,8.9
2022-11-05T17:07:19.476Z,8.9
2022-11-05T17:12:19.490Z,8.9
2022-11-05T17:17:19.483Z,8.2
2022-11-05T17:22:19.541Z,8
2022-11-05T17:27:19.568Z,7.8
2022-11-05T17:32:19.502Z,7.8
2022-11-05T17:37:19.454Z,7.8
2022-11-05T17:42:19.505Z,7.8
2022-11-05T17:47:19.508Z,8
2022-11-05T17:52:19.484Z,8.5
2022-11-05T17:57:19.485Z,8.8
2022-11-05T18:02:19.642Z,9.6
2022-11-05T18:07:19.489Z,9.6
2022-11-05T18:12:19.467Z,10.9
2022-11-05T18:17:19.515Z,10.9
2022-11-05T18:22:19.486Z,11.4
2022-11-05T18:27:19.521Z,11.4
2022-11-05T18:32:19.469Z,11.9
2022-11-05T18:37:19.509Z,11.9
2022-11-05T18:42:19.561Z,14.9
2022-11-05T18:47:19.490Z,14.9
2022-11-05T18:52:19.494Z,14.9
2022-11-05T18:57:19.619Z,14.9
2022-11-05T19:02:19.687Z,11
2022-11-05T19:07:19.498Z,10.7
2022-11-05T19:12:19.508Z,10.7
2022-11-05T19:17:20.100Z,9.9
2022-11-05T19:22:19.493Z,10.7
2022-11-05T19:48:28.520Z,22.8
2022-11-05T19:52:19.678Z,21.8
2022-11-05T19:57:27.999Z,20.8
2022-11-05T20:02:19.691Z,19.5
2022-11-05T20:12:19.703Z,18.3
2022-11-05T20:17:37.255Z,17.6
2022-11-05T20:22:19.550Z,17.9
2022-11-05T20:27:19.539Z,17.6
2022-11-05T20:32:19.515Z,17.3
2022-11-05T20:37:19.459Z,17.45
2022-11-05T20:42:19.589Z,17.6
2022-11-05T20:47:19.543Z,17.6
2022-11-05T20:52:19.499Z,17.6
2022-11-05T20:57:19.502Z,17.6
2022-11-05T21:02:19.711Z,17.7
2022-11-05T21:07:26.677Z,18.3
2022-11-05T21:12:19.482Z,18.8
2022-11-05T21:17:29.325Z,19.8
2022-11-05T21:22:19.631Z,19.9
2022-11-05T21:27:19.768Z,23.2
2022-11-05T21:32:19.828Z,24.5
2022-11-05T21:37:19.657Z,24.5
2022-11-05T21:42:19.597Z,24.5
2022-11-05T21:47:19.522Z,24.5
2022-11-05T21:52:19.576Z,23.4
2022-11-05T21:57:19.777Z,21.5
2022-11-05T22:02:19.682Z,17.3
2022-11-05T22:12:19.529Z,16.9
2022-11-05T22:17:19.508Z,16.4
2022-11-05T22:22:19.606Z,16.1
2022-11-05T22:27:19.550Z,15.5
2022-11-05T22:32:19.560Z,15.5
2022-11-05T22:37:19.618Z,15.3
2022-11-05T22:42:19.619Z,14.8
2022-11-05T22:53:44.002Z,14.8
2022-11-05T22:57:23.500Z,14.8
2022-11-05T23:02:23.475Z,15.6
2022-11-05T23:07:29.503Z,29.3
2022-11-05T23:12:23.509Z,29.3
2022-11-05T23:17:23.436Z,29.3
2022-11-05T23:22:23.483Z,29.3
2022-11-05T23:27:23.402Z,17.4
2022-11-05T23:32:23.397Z,17.1
2022-11-05T23:37:23.472Z,16.8
2022-11-05T23:42:23.398Z,16.8
2022-11-05T23:47:23.377Z,16.8
2022-11-05T23:52:23.413Z,16.9
2022-11-05T23:57:23.402Z,16.8
